createdAt,value
2022-10-06T00:00:03.553Z,1669
2022-10-06T00:01:03.383Z,1474
2022-10-06T00:02:03.355Z,1168
2022-10-06T00:03:03.397Z,1590
2022-10-06T00:05:03.546Z,1118
2022-10-06T00:06:03.324Z,1274
2022-10-06T00:07:03.345Z,1697
2022-10-06T00:08:03.366Z,1429
2022-10-06T00:10:03.547Z,1324
2022-10-06T00:11:03.389Z,1860
2022-10-06T00:12:03.360Z,1711
2022-10-06T00:13:03.372Z,1360
2022-10-06T00:15:03.543Z,1840
2022-10-06T00:16:03.395Z,1376
2022-10-06T00:17:03.428Z,1830
2022-10-06T00:18:03.352Z,2128
2022-10-06T00:20:03.547Z,1626
2022-10-06T00:21:03.331Z,1840
2022-10-06T00:22:03.339Z,1491
2022-10-06T00:23:03.346Z,1955
2022-10-06T00:25:03.551Z,1659
2022-10-06T00:26:03.357Z,2438
2022-10-06T00:27:03.339Z,2560
2022-10-06T00:28:03.389Z,1900
2022-10-06T00:30:03.539Z,1773
2022-10-06T00:31:03.399Z,1955
2022-10-06T00:32:03.368Z,1830
2022-10-06T00:33:03.371Z,1238
2022-10-06T00:35:03.553Z,1912
2022-10-06T00:36:03.375Z,1513
2022-10-06T00:37:03.377Z,1830
2022-10-06T00:38:03.371Z,1820
2022-10-06T00:40:03.550Z,2001
2022-10-06T00:41:03.369Z,2201
2022-10-06T00:42:03.391Z,1621
2022-10-06T00:43:03.388Z,2084
2022-10-06T00:45:03.560Z,1683
2022-10-06T00:46:03.436Z,1692
2022-10-06T00:47:03.413Z,1507
2022-10-06T00:48:03.365Z,2152
2022-10-06T00:50:03.549Z,1288
2022-10-06T00:51:03.385Z,1445
2022-10-06T00:52:03.387Z,2374
2022-10-06T00:53:03.381Z,1191
2022-10-06T00:55:03.554Z,1706
2022-10-06T00:56:03.365Z,1105
2022-10-06T00:57:03.426Z,1995
2022-10-06T00:58:03.365Z,2509
2022-10-06T01:00:03.541Z,1420
2022-10-06T01:01:03.383Z,1860
2022-10-06T01:02:03.403Z,1650
2022-10-06T01:03:03.431Z,1174
2022-10-06T01:05:03.557Z,1538
2022-10-06T01:06:03.360Z,1262
2022-10-06T01:07:03.406Z,1762
2022-10-06T01:08:03.372Z,1850
2022-10-06T01:10:03.538Z,1990
2022-10-06T01:11:03.372Z,1334
2022-10-06T01:12:03.394Z,1590
2022-10-06T01:13:03.361Z,1759
2022-10-06T01:15:03.586Z,1663
2022-10-06T01:16:03.396Z,1835
2022-10-06T01:17:03.371Z,1420
2022-10-06T01:18:03.391Z,1697
2022-10-06T01:20:03.579Z,1683
2022-10-06T01:21:03.357Z,1432
2022-10-06T01:22:03.375Z,1338
2022-10-06T01:23:03.368Z,1810
2022-10-06T01:25:03.554Z,1380
2022-10-06T01:26:03.359Z,2035
2022-10-06T01:27:03.378Z,1855
2022-10-06T01:28:03.459Z,1562
2022-10-06T01:30:03.551Z,1978
2022-10-06T01:31:03.404Z,1626
2022-10-06T01:32:03.379Z,2445
2022-10-06T01:33:03.365Z,1643
2022-10-06T01:35:03.581Z,2001
2022-10-06T01:36:03.377Z,1491
2022-10-06T01:37:03.402Z,1792
2022-10-06T01:38:03.419Z,2421
2022-10-06T01:40:03.610Z,1735
2022-10-06T01:41:03.397Z,1905
2022-10-06T01:42:03.420Z,1364
2022-10-06T01:43:03.400Z,2591
2022-10-06T01:45:03.601Z,2024
2022-10-06T01:46:03.445Z,1890
2022-10-06T01:47:03.417Z,2029
2022-10-06T01:48:03.400Z,1360
2022-10-06T01:50:03.617Z,1995
2022-10-06T01:51:03.396Z,2717
2022-10-06T01:52:03.408Z,2537
2022-10-06T01:53:03.419Z,1231
2022-10-06T01:55:03.632Z,1558
2022-10-06T01:56:03.434Z,1538
2022-10-06T01:57:03.408Z,1810
2022-10-06T01:58:03.417Z,1978
2022-10-06T02:00:03.602Z,1995
2022-10-06T02:01:03.420Z,1538
2022-10-06T02:02:03.482Z,1825
2022-10-06T02:03:03.413Z,1912
2022-10-06T02:05:03.594Z,1937
2022-10-06T02:06:03.480Z,1754
2022-10-06T02:07:03.405Z,1706
2022-10-06T02:08:03.416Z,1815
2022-10-06T02:10:03.596Z,1805
2022-10-06T02:11:03.402Z,1759
2022-10-06T02:12:03.403Z,1252
2022-10-06T02:13:03.397Z,1702
2022-10-06T02:15:03.586Z,2056
2022-10-06T02:16:03.426Z,1697
2022-10-06T02:17:03.381Z,1277
2022-10-06T02:18:03.398Z,1735
2022-10-06T02:20:03.586Z,1659
2022-10-06T02:21:03.399Z,1928
2022-10-06T02:22:03.388Z,1594
2022-10-06T02:23:03.391Z,2001
2022-10-06T02:25:03.576Z,1961
2022-10-06T02:26:03.412Z,1534
2022-10-06T02:27:03.408Z,2017
2022-10-06T02:28:03.442Z,1503
2022-10-06T02:30:03.581Z,2414
2022-10-06T02:31:03.451Z,1316
2022-10-06T02:32:03.422Z,2056
2022-10-06T02:33:03.392Z,3104
2022-10-06T02:35:03.582Z,1978
2022-10-06T02:36:03.398Z,1436
2022-10-06T02:37:03.406Z,1912
2022-10-06T02:38:03.400Z,2001
2022-10-06T02:40:03.583Z,1944
2022-10-06T02:41:03.396Z,1393
2022-10-06T02:42:03.460Z,1916
2022-10-06T02:43:03.427Z,1798
2022-10-06T02:45:03.598Z,1759
2022-10-06T02:46:03.464Z,1416
2022-10-06T02:47:03.404Z,1759
2022-10-06T02:48:03.400Z,1815
2022-10-06T02:50:03.581Z,1487
2022-10-06T02:51:03.396Z,1990
2022-10-06T02:52:03.413Z,1569
2022-10-06T02:53:03.423Z,1723
2022-10-06T02:55:03.621Z,1530
2022-10-06T02:56:03.400Z,1879
2022-10-06T02:57:03.400Z,1420
2022-10-06T02:58:03.424Z,1895
2022-10-06T03:00:03.627Z,1274
2022-10-06T03:01:03.426Z,1574
2022-10-06T03:02:03.570Z,1513
2022-10-06T03:03:03.480Z,1984
2022-10-06T03:05:03.605Z,1441
2022-10-06T03:06:03.429Z,2421
2022-10-06T03:07:03.436Z,1416
2022-10-06T03:08:03.429Z,1973
2022-10-06T03:10:03.603Z,1616
2022-10-06T03:11:03.417Z,2072
2022-10-06T03:12:03.430Z,1749
2022-10-06T03:13:03.406Z,2072
2022-10-06T03:15:03.621Z,2937
2022-10-06T03:16:03.529Z,1845
2022-10-06T03:17:03.425Z,2041
2022-10-06T03:18:03.436Z,1830
2022-10-06T03:20:03.627Z,2265
2022-10-06T03:21:03.441Z,2494
2022-10-06T03:22:03.449Z,2255
2022-10-06T03:23:03.441Z,2255
2022-10-06T03:25:03.657Z,2332
2022-10-06T03:26:03.463Z,1688
2022-10-06T03:27:03.443Z,2452
2022-10-06T03:28:03.488Z,2280
2022-10-06T03:30:03.643Z,2501
2022-10-06T03:31:03.491Z,1830
2022-10-06T03:32:03.456Z,2659
2022-10-06T03:33:03.464Z,3495
2022-10-06T03:35:03.632Z,2473
2022-10-06T03:36:03.486Z,1678
2022-10-06T03:37:03.467Z,2347
2022-10-06T03:38:03.447Z,2306
2022-10-06T03:40:03.636Z,2170
2022-10-06T03:41:03.461Z,1916
2022-10-06T03:42:03.482Z,2537
2022-10-06T03:43:03.446Z,2591
2022-10-06T03:45:03.615Z,2775
2022-10-06T03:46:03.453Z,1820
2022-10-06T03:47:03.485Z,2374
2022-10-06T03:48:03.446Z,2072
2022-10-06T03:50:03.634Z,2537
2022-10-06T03:51:03.458Z,1835
2022-10-06T03:52:03.462Z,2240
2022-10-06T03:53:03.462Z,2247
2022-10-06T03:55:03.645Z,2072
2022-10-06T03:56:03.478Z,1723
2022-10-06T03:57:03.460Z,2806
2022-10-06T03:58:03.457Z,2560
2022-10-06T04:00:03.645Z,2717
2022-10-06T04:01:03.481Z,1798
2022-10-06T04:02:03.493Z,2514
2022-10-06T04:03:03.468Z,1916
2022-10-06T04:05:03.639Z,2544
2022-10-06T04:06:03.472Z,1743
2022-10-06T04:07:03.477Z,2182
2022-10-06T04:08:03.451Z,2367
2022-10-06T04:10:03.653Z,2583
2022-10-06T04:11:03.433Z,1872
2022-10-06T04:12:03.442Z,2861
2022-10-06T04:13:03.461Z,3720
2022-10-06T04:15:03.661Z,2240
2022-10-06T04:16:03.503Z,2913
2022-10-06T04:17:03.449Z,2056
2022-10-06T04:18:03.457Z,2647
2022-10-06T04:20:03.644Z,2921
2022-10-06T04:21:03.472Z,2494
2022-10-06T04:22:03.461Z,1798
2022-10-06T04:23:03.467Z,2521
2022-10-06T04:25:03.652Z,4226
2022-10-06T04:26:03.467Z,2466
2022-10-06T04:27:03.477Z,2035
2022-10-06T04:28:03.541Z,2640
2022-10-06T04:30:03.646Z,2823
2022-10-06T04:31:03.471Z,2775
2022-10-06T04:32:03.498Z,2170
2022-10-06T04:33:03.475Z,2466
2022-10-06T04:35:03.652Z,2494
2022-10-06T04:36:03.490Z,2438
2022-10-06T04:37:03.484Z,1890
2022-10-06T04:38:03.481Z,3221
2022-10-06T04:40:03.655Z,2696
2022-10-06T04:41:03.469Z,2829
2022-10-06T04:42:03.491Z,2207
2022-10-06T04:43:03.473Z,1995
2022-10-06T04:45:03.656Z,3421
2022-10-06T04:46:13.242Z,1967
2022-10-06T04:47:03.506Z,1890
2022-10-06T04:48:03.462Z,2280
2022-10-06T04:50:03.676Z,2521
2022-10-06T04:51:03.476Z,2461
2022-10-06T04:52:03.489Z,1805
2022-10-06T04:53:03.454Z,2152
2022-10-06T04:55:03.703Z,1717
2022-10-06T04:56:03.487Z,2280
2022-10-06T04:57:03.518Z,1840
2022-10-06T04:58:03.482Z,2494
2022-10-06T05:00:07.905Z,1900
2022-10-06T05:01:03.503Z,2480
2022-10-06T05:02:03.521Z,2380
2022-10-06T05:03:03.484Z,1825
2022-10-06T05:05:03.668Z,2388
2022-10-06T05:06:03.491Z,1669
2022-10-06T05:07:03.509Z,2062
2022-10-06T05:08:03.491Z,2338
2022-10-06T05:10:03.667Z,2110
2022-10-06T05:11:03.483Z,2214
2022-10-06T05:12:03.496Z,2760
2022-10-06T05:13:03.514Z,2255
2022-10-06T05:15:03.652Z,2300
2022-10-06T05:16:03.565Z,2062
2022-10-06T05:17:03.487Z,1944
2022-10-06T05:18:03.504Z,2598
2022-10-06T05:20:03.676Z,2247
2022-10-06T05:21:06.459Z,2158
2022-10-06T05:22:03.473Z,1706
2022-10-06T05:23:03.502Z,2214
2022-10-06T05:25:03.685Z,1697
2022-10-06T05:26:03.464Z,2068
2022-10-06T05:27:03.481Z,2017
2022-10-06T05:28:03.533Z,1659
2022-10-06T05:30:03.675Z,1711
2022-10-06T05:31:03.501Z,2120
2022-10-06T05:32:03.540Z,2120
2022-10-06T05:33:03.484Z,1584
2022-10-06T05:35:03.672Z,2583
2022-10-06T05:36:03.491Z,1865
2022-10-06T05:37:03.526Z,2501
2022-10-06T05:38:03.496Z,2494
2022-10-06T05:40:03.688Z,1683
2022-10-06T05:41:03.494Z,2140
2022-10-06T05:42:03.478Z,2632
2022-10-06T05:43:03.482Z,2220
2022-10-06T05:45:03.668Z,2311
2022-10-06T05:46:03.531Z,2489
2022-10-06T05:47:03.503Z,2783
2022-10-06T05:48:03.491Z,2521
2022-10-06T05:50:03.689Z,2272
2022-10-06T05:51:03.484Z,2674
2022-10-06T05:52:03.519Z,1916
2022-10-06T05:53:03.480Z,2741
2022-10-06T05:55:03.717Z,2494
2022-10-06T05:56:03.518Z,2872
2022-10-06T05:57:03.505Z,2226
2022-10-06T05:58:03.523Z,1759
2022-10-06T06:00:03.698Z,1840
2022-10-06T06:01:03.516Z,2970
2022-10-06T06:02:03.643Z,2618
2022-10-06T06:03:03.565Z,1792
2022-10-06T06:05:03.727Z,1890
2022-10-06T06:06:03.510Z,2408
2022-10-06T06:07:03.543Z,2647
2022-10-06T06:08:03.564Z,2120
2022-10-06T06:10:03.692Z,2306
2022-10-06T06:11:03.515Z,1389
2022-10-06T06:12:03.519Z,1768
2022-10-06T06:13:03.509Z,2102
2022-10-06T06:15:03.691Z,1961
2022-10-06T06:16:03.502Z,1995
2022-10-06T06:17:03.549Z,2401
2022-10-06T06:18:03.499Z,1669
2022-10-06T06:20:03.693Z,2006
2022-10-06T06:21:03.500Z,2234
2022-10-06T06:22:03.520Z,1597
2022-10-06T06:23:03.498Z,2704
2022-10-06T06:25:03.701Z,1630
2022-10-06T06:26:03.532Z,1921
2022-10-06T06:27:03.533Z,2461
2022-10-06T06:28:03.549Z,1548
2022-10-06T06:30:03.691Z,1754
2022-10-06T06:31:03.543Z,1933
2022-10-06T06:32:03.518Z,1534
2022-10-06T06:33:03.530Z,1530
2022-10-06T06:35:03.701Z,2006
2022-10-06T06:36:03.528Z,1921
2022-10-06T06:37:06.884Z,1248
2022-10-06T06:38:03.530Z,1723
2022-10-06T06:40:03.708Z,1805
2022-10-06T06:41:03.525Z,1513
2022-10-06T06:42:03.622Z,2035
2022-10-06T06:43:03.548Z,2092
2022-10-06T06:45:03.725Z,1597
2022-10-06T06:46:03.601Z,1865
2022-10-06T06:47:03.542Z,1495
2022-10-06T06:48:03.564Z,1352
2022-10-06T06:50:03.726Z,1978
2022-10-06T06:51:03.551Z,1749
2022-10-06T06:52:03.531Z,1810
2022-10-06T06:53:03.540Z,1231
2022-10-06T06:55:03.726Z,1349
2022-10-06T06:56:03.549Z,1782
2022-10-06T06:57:03.530Z,1639
2022-10-06T06:58:03.508Z,1603
2022-10-06T07:00:03.695Z,1238
2022-10-06T07:01:03.609Z,1201
2022-10-06T07:02:03.582Z,1220
2022-10-06T07:03:03.533Z,1156
2022-10-06T07:05:03.749Z,1487
2022-10-06T07:06:03.506Z,1266
2022-10-06T07:07:03.530Z,1310
2022-10-06T07:08:03.510Z,1102
2022-10-06T07:10:03.703Z,889
2022-10-06T07:11:03.514Z,1307
2022-10-06T07:12:03.536Z,1274
2022-10-06T07:13:03.514Z,1231
2022-10-06T07:15:03.706Z,1255
2022-10-06T07:16:03.588Z,923
2022-10-06T07:17:03.550Z,1017
2022-10-06T07:19:51.843Z,400
2022-10-06T07:20:51.817Z,502
2022-10-06T07:21:51.827Z,560
2022-10-06T07:23:52.123Z,560
2022-10-06T07:24:51.847Z,555
2022-10-06T07:25:51.817Z,405
2022-10-06T07:28:52.149Z,539
2022-10-06T07:29:52.171Z,618
2022-10-06T07:30:51.838Z,611
2022-10-06T07:31:51.843Z,597
2022-10-06T07:33:52.128Z,618
2022-10-06T07:34:52.235Z,466
2022-10-06T07:35:51.821Z,436
2022-10-06T07:36:51.987Z,460
2022-10-06T07:38:52.115Z,461
2022-10-06T07:39:51.957Z,592
2022-10-06T07:41:07.567Z,584
2022-10-06T07:41:51.965Z,483
2022-10-06T07:43:52.143Z,567
2022-10-06T07:44:52.300Z,556
2022-10-06T07:45:52.026Z,565
2022-10-06T07:46:51.959Z,580
2022-10-06T07:48:52.115Z,443
2022-10-06T07:49:51.941Z,539
2022-10-06T07:50:51.962Z,539
2022-10-06T07:51:51.940Z,460
2022-10-06T07:53:52.121Z,564
2022-10-06T07:54:52.202Z,543
2022-10-06T07:55:51.971Z,407
2022-10-06T07:56:51.951Z,425
2022-10-06T07:58:52.118Z,508
2022-10-06T07:59:51.846Z,400
2022-10-06T08:00:51.950Z,400
2022-10-06T08:01:51.974Z,530
2022-10-06T08:03:52.159Z,493
2022-10-06T08:04:52.165Z,581
2022-10-06T08:05:51.853Z,531
2022-10-06T08:06:51.843Z,530
2022-10-06T08:08:53.118Z,448
2022-10-06T08:09:51.843Z,417
2022-10-06T08:10:51.858Z,417
2022-10-06T08:11:51.839Z,556
2022-10-06T08:13:52.242Z,421
2022-10-06T08:14:52.024Z,434
2022-10-06T08:15:51.889Z,434
2022-10-06T08:18:52.161Z,531
2022-10-06T08:19:51.875Z,520
2022-10-06T08:20:51.887Z,527
2022-10-06T08:21:51.875Z,531
2022-10-06T08:23:52.153Z,599
2022-10-06T08:25:05.128Z,533
2022-10-06T08:25:51.875Z,439
2022-10-06T08:26:51.942Z,542
2022-10-06T08:28:52.170Z,506
2022-10-06T08:29:51.973Z,545
2022-10-06T08:30:51.892Z,434
2022-10-06T08:31:52.044Z,435
2022-10-06T08:33:52.145Z,441
2022-10-06T08:34:52.225Z,400
2022-10-06T08:35:51.870Z,405
2022-10-06T08:37:02.367Z,400
2022-10-06T08:38:52.180Z,408
2022-10-06T08:39:51.874Z,426
2022-10-06T08:40:51.876Z,426
2022-10-06T08:41:51.853Z,426
2022-10-06T08:43:52.159Z,426
2022-10-06T08:44:52.110Z,426
2022-10-06T08:45:52.031Z,439
2022-10-06T08:46:51.883Z,548
2022-10-06T08:48:52.150Z,436
2022-10-06T08:49:52.433Z,426
2022-10-06T08:50:51.862Z,461
2022-10-06T08:51:51.877Z,426
2022-10-06T08:53:52.157Z,560
2022-10-06T08:54:51.857Z,553
2022-10-06T08:55:51.869Z,577
2022-10-06T08:56:51.873Z,577
2022-10-06T08:58:52.168Z,443
2022-10-06T08:59:52.085Z,400
2022-10-06T09:00:51.912Z,413
2022-10-06T09:01:51.922Z,424
2022-10-06T09:03:52.163Z,580
2022-10-06T09:04:51.896Z,581
2022-10-06T09:05:51.910Z,578
2022-10-06T09:06:51.898Z,581
2022-10-06T09:08:52.167Z,508
2022-10-06T09:09:51.948Z,589
2022-10-06T09:10:51.920Z,617
2022-10-06T09:11:51.898Z,602
2022-10-06T09:13:52.220Z,485
2022-10-06T09:14:51.878Z,492
2022-10-06T09:15:51.919Z,540
2022-10-06T09:16:51.883Z,536
2022-10-06T09:19:08.038Z,497
2022-10-06T09:19:51.889Z,596
2022-10-06T09:20:51.867Z,612
2022-10-06T09:21:51.901Z,640
2022-10-06T09:23:52.187Z,645
2022-10-06T09:24:51.867Z,552
2022-10-06T09:25:51.875Z,409
2022-10-06T09:26:51.870Z,409
2022-10-06T09:28:52.178Z,417
2022-10-06T09:29:51.874Z,417
2022-10-06T09:30:55.234Z,407
2022-10-06T09:31:51.937Z,577
2022-10-06T09:33:52.169Z,551
2022-10-06T09:34:51.908Z,551
2022-10-06T09:35:51.875Z,551
2022-10-06T09:36:51.905Z,400
2022-10-06T09:38:52.176Z,530
2022-10-06T09:39:51.911Z,441
2022-10-06T09:40:51.923Z,486
2022-10-06T09:41:51.933Z,476
2022-10-06T09:43:52.196Z,519
2022-10-06T09:44:51.915Z,433
2022-10-06T09:45:51.913Z,526
2022-10-06T09:46:51.926Z,517
2022-10-06T09:48:52.188Z,546
2022-10-06T09:49:51.918Z,526
2022-10-06T09:50:51.923Z,531
2022-10-06T09:51:51.916Z,400
2022-10-06T09:53:52.209Z,433
2022-10-06T09:54:51.923Z,523
2022-10-06T09:55:51.921Z,564
2022-10-06T09:56:51.937Z,414
2022-10-06T09:58:52.202Z,506
2022-10-06T09:59:51.950Z,543
2022-10-06T10:00:51.986Z,543
2022-10-06T10:01:51.928Z,410
2022-10-06T10:04:15.894Z,498
2022-10-06T10:04:51.934Z,592
2022-10-06T10:05:51.931Z,620
2022-10-06T10:06:51.938Z,465
2022-10-06T10:08:52.214Z,581
2022-10-06T10:09:51.941Z,491
2022-10-06T10:10:51.938Z,631
2022-10-06T10:11:51.930Z,481
2022-10-06T10:13:52.200Z,675
2022-10-06T10:14:51.935Z,611
2022-10-06T10:15:51.964Z,450
2022-10-06T10:16:53.327Z,450
2022-10-06T10:18:52.229Z,536
2022-10-06T10:19:51.913Z,517
2022-10-06T10:20:51.935Z,498
2022-10-06T10:21:51.921Z,500
2022-10-06T10:23:52.219Z,485
2022-10-06T10:24:51.934Z,477
2022-10-06T10:25:51.936Z,411
2022-10-06T10:26:51.935Z,457
2022-10-06T10:28:52.211Z,482
2022-10-06T10:29:51.930Z,400
2022-10-06T10:30:51.932Z,493
2022-10-06T10:31:51.967Z,413
2022-10-06T10:33:59.139Z,400
2022-10-06T10:34:51.908Z,495
2022-10-06T10:35:51.938Z,473
2022-10-06T10:36:51.916Z,473
2022-10-06T10:38:52.224Z,478
2022-10-06T10:39:51.914Z,488
2022-10-06T10:40:51.945Z,515
2022-10-06T10:41:51.915Z,531
2022-10-06T10:43:52.211Z,488
2022-10-06T10:44:52.031Z,475
2022-10-06T10:45:51.967Z,460
2022-10-06T10:46:52.118Z,425
2022-10-06T10:48:52.239Z,442
2022-10-06T10:49:52.074Z,462
2022-10-06T10:50:52.051Z,442
2022-10-06T10:51:51.927Z,485
2022-10-06T10:53:52.218Z,534
2022-10-06T10:54:51.928Z,466
2022-10-06T10:55:51.949Z,476
2022-10-06T10:56:51.926Z,400
2022-10-06T10:58:52.239Z,491
2022-10-06T10:59:51.920Z,433
2022-10-06T11:00:51.994Z,578
2022-10-06T11:01:51.994Z,536
2022-10-06T11:03:52.245Z,446
2022-10-06T11:04:51.950Z,567
2022-10-06T11:05:51.949Z,556
2022-10-06T11:06:51.933Z,454
2022-10-06T11:08:52.238Z,441
2022-10-06T11:09:52.079Z,501
2022-10-06T11:10:52.057Z,505
2022-10-06T11:11:52.471Z,433
2022-10-06T11:13:52.236Z,433
2022-10-06T11:14:52.034Z,487
2022-10-06T11:15:52.098Z,487
2022-10-06T11:16:52.056Z,527
2022-10-06T11:18:52.231Z,487
2022-10-06T11:19:51.988Z,433
2022-10-06T11:20:52.058Z,436
2022-10-06T11:21:51.967Z,433
2022-10-06T11:23:52.239Z,438
2022-10-06T11:24:51.985Z,433
2022-10-06T11:25:51.935Z,433
2022-10-06T11:26:51.963Z,446
2022-10-06T11:28:52.242Z,447
2022-10-06T11:29:51.979Z,441
2022-10-06T11:30:51.980Z,441
2022-10-06T11:31:52.021Z,441
2022-10-06T11:33:52.264Z,450
2022-10-06T11:34:51.990Z,414
2022-10-06T11:35:51.998Z,414
2022-10-06T11:36:51.979Z,503
2022-10-06T11:38:52.268Z,487
2022-10-06T11:39:51.977Z,463
2022-10-06T11:40:51.948Z,400
2022-10-06T11:41:51.966Z,445
2022-10-06T11:43:52.248Z,403
2022-10-06T11:44:51.957Z,445
2022-10-06T11:45:52.008Z,460
2022-10-06T11:46:51.966Z,445
2022-10-06T11:48:52.285Z,445
2022-10-06T11:49:52.232Z,465
2022-10-06T11:50:52.088Z,456
2022-10-06T11:51:54.664Z,485
2022-10-06T11:53:52.253Z,452
2022-10-06T11:54:51.978Z,476
2022-10-06T11:55:51.959Z,492
2022-10-06T11:56:51.979Z,400
2022-10-06T11:58:52.263Z,428
2022-10-06T11:59:52.088Z,400
2022-10-06T12:00:52.088Z,443
2022-10-06T12:01:52.321Z,400
2022-10-06T12:03:52.285Z,400
2022-10-06T12:04:51.999Z,400
2022-10-06T12:05:56.446Z,543
2022-10-06T12:06:51.961Z,592
2022-10-06T12:08:52.288Z,444
2022-10-06T12:09:52.902Z,526
2022-10-06T12:10:51.957Z,551
2022-10-06T12:11:51.981Z,414
2022-10-06T12:14:44.370Z,457
2022-10-06T12:17:08.767Z,505
2022-10-06T12:18:52.295Z,506
2022-10-06T12:19:52.084Z,675
2022-10-06T12:20:52.107Z,465
2022-10-06T12:21:52.129Z,668
2022-10-06T12:23:52.278Z,575
2022-10-06T12:24:52.106Z,668
2022-10-06T12:25:52.098Z,498
2022-10-06T12:26:52.098Z,678
2022-10-06T12:28:52.273Z,629
2022-10-06T12:29:52.002Z,615
2022-10-06T12:30:52.050Z,480
2022-10-06T12:31:52.029Z,629
2022-10-06T12:33:52.296Z,607
2022-10-06T12:34:52.014Z,476
2022-10-06T12:35:52.014Z,620
2022-10-06T12:36:52.012Z,665
2022-10-06T12:38:52.272Z,637
2022-10-06T12:39:52.011Z,588
2022-10-06T12:40:52.012Z,569
2022-10-06T12:41:52.010Z,451
2022-10-06T12:43:52.280Z,400
2022-10-06T12:44:52.019Z,675
2022-10-06T12:45:52.032Z,515
2022-10-06T12:46:52.135Z,539
2022-10-06T12:48:52.277Z,744
2022-10-06T12:49:51.984Z,620
2022-10-06T12:50:51.993Z,690
2022-10-06T12:51:53.319Z,485
2022-10-06T12:53:52.277Z,603
2022-10-06T12:54:51.997Z,657
2022-10-06T12:55:52.004Z,495
2022-10-06T12:56:52.100Z,653
2022-10-06T12:58:52.305Z,482
2022-10-06T12:59:52.108Z,588
2022-10-06T13:00:52.111Z,442
2022-10-06T13:01:52.116Z,523
2022-10-06T13:03:52.295Z,620
2022-10-06T13:04:52.133Z,594
2022-10-06T13:05:52.136Z,427
2022-10-06T13:06:52.002Z,420
2022-10-06T13:08:52.330Z,589
2022-10-06T13:09:52.015Z,480
2022-10-06T13:10:51.998Z,672
2022-10-06T13:11:52.025Z,659
2022-10-06T13:13:52.334Z,704
2022-10-06T13:14:52.017Z,441
2022-10-06T13:15:52.054Z,588
2022-10-06T13:16:52.088Z,599
2022-10-06T13:18:52.323Z,605
2022-10-06T13:19:52.207Z,787
2022-10-06T13:20:52.116Z,546
2022-10-06T13:21:52.134Z,674
2022-10-06T13:23:52.322Z,566
2022-10-06T13:24:52.127Z,819
2022-10-06T13:25:52.130Z,612
2022-10-06T13:26:52.140Z,768
2022-10-06T13:28:52.309Z,774
2022-10-06T13:29:52.062Z,832
2022-10-06T13:30:52.104Z,761
2022-10-06T13:31:52.896Z,580
2022-10-06T13:33:52.339Z,865
2022-10-06T13:34:52.043Z,802
2022-10-06T13:35:52.140Z,584
2022-10-06T13:36:52.052Z,506
2022-10-06T13:38:52.306Z,791
2022-10-06T13:39:52.056Z,556
2022-10-06T13:40:52.044Z,714
2022-10-06T13:41:52.044Z,506
2022-10-06T13:43:52.344Z,523
2022-10-06T13:44:52.019Z,638
2022-10-06T13:45:52.105Z,425
2022-10-06T13:46:52.024Z,555
2022-10-06T13:48:52.342Z,631
2022-10-06T13:49:52.034Z,452
2022-10-06T13:50:52.060Z,633
2022-10-06T13:51:52.020Z,465
2022-10-06T13:53:52.339Z,626
2022-10-06T13:54:52.144Z,612
2022-10-06T13:55:52.178Z,486
2022-10-06T13:56:52.163Z,733
2022-10-06T13:58:52.321Z,561
2022-10-06T13:59:52.055Z,737
2022-10-06T14:00:52.066Z,730
2022-10-06T14:01:52.096Z,671
2022-10-06T14:03:52.347Z,640
2022-10-06T14:04:52.027Z,486
2022-10-06T14:05:52.051Z,657
2022-10-06T14:06:52.158Z,638
2022-10-06T14:08:52.354Z,637
2022-10-06T14:09:52.043Z,570
2022-10-06T14:10:52.026Z,791
2022-10-06T14:11:52.034Z,780
2022-10-06T14:13:52.382Z,555
2022-10-06T14:14:52.053Z,744
2022-10-06T14:15:52.156Z,744
2022-10-06T14:16:52.067Z,714
2022-10-06T14:18:52.359Z,757
2022-10-06T14:19:52.048Z,683
2022-10-06T14:20:52.184Z,674
2022-10-06T14:21:52.150Z,645
2022-10-06T14:23:52.332Z,460
2022-10-06T14:24:52.171Z,706
2022-10-06T14:25:52.171Z,712
2022-10-06T14:26:52.081Z,686
2022-10-06T14:28:52.341Z,623
2022-10-06T14:29:52.063Z,485
2022-10-06T14:30:52.095Z,672
2022-10-06T14:31:52.075Z,491
2022-10-06T14:33:52.348Z,496
2022-10-06T14:34:52.095Z,626
2022-10-06T14:35:52.093Z,560
2022-10-06T14:36:52.077Z,546
2022-10-06T14:38:52.352Z,526
2022-10-06T14:39:52.073Z,459
2022-10-06T14:40:52.082Z,586
2022-10-06T14:41:52.047Z,555
2022-10-06T14:43:52.382Z,459
2022-10-06T14:44:52.070Z,574
2022-10-06T14:45:52.115Z,586
2022-10-06T14:46:52.077Z,581
2022-10-06T14:48:52.354Z,586
2022-10-06T14:49:52.201Z,462
2022-10-06T14:50:52.079Z,462
2022-10-06T14:51:52.058Z,466
2022-10-06T14:53:52.376Z,536
2022-10-06T14:54:52.079Z,551
2022-10-06T14:55:52.091Z,537
2022-10-06T14:56:52.090Z,456
2022-10-06T14:58:52.381Z,546
2022-10-06T14:59:52.083Z,578
2022-10-06T15:00:52.088Z,456
2022-10-06T15:01:52.099Z,596
2022-10-06T15:03:52.444Z,456
2022-10-06T15:04:52.101Z,612
2022-10-06T15:05:52.071Z,612
2022-10-06T15:06:52.139Z,638
2022-10-06T15:08:52.365Z,451
2022-10-06T15:09:52.090Z,519
2022-10-06T15:10:52.090Z,692
2022-10-06T15:11:52.094Z,728
2022-10-06T15:13:52.360Z,574
2022-10-06T15:14:52.096Z,802
2022-10-06T15:15:52.127Z,748
2022-10-06T15:16:52.193Z,868
2022-10-06T15:18:52.396Z,620
2022-10-06T15:19:52.229Z,804
2022-10-06T15:20:52.202Z,785
2022-10-06T15:21:52.174Z,660
2022-10-06T15:23:52.395Z,795
2022-10-06T15:24:52.111Z,972
2022-10-06T15:25:52.208Z,925
2022-10-06T15:26:52.111Z,967
2022-10-06T15:28:52.375Z,768
2022-10-06T15:29:52.105Z,1044
2022-10-06T15:30:52.145Z,1044
2022-10-06T15:31:52.122Z,1068
2022-10-06T15:33:53.170Z,1083
2022-10-06T15:34:52.108Z,872
2022-10-06T15:35:52.113Z,887
2022-10-06T15:36:52.121Z,872
2022-10-06T15:38:52.375Z,1090
2022-10-06T15:39:52.100Z,742
2022-10-06T15:40:52.109Z,877
2022-10-06T15:41:52.099Z,897
2022-10-06T15:43:52.376Z,902
2022-10-06T15:44:52.098Z,1270
2022-10-06T15:45:52.092Z,1316
2022-10-06T15:46:52.160Z,1231
2022-10-06T15:48:52.385Z,1134
2022-10-06T15:49:52.097Z,1009
2022-10-06T15:50:52.084Z,1065
2022-10-06T15:51:52.116Z,1086
2022-10-06T15:53:52.338Z,995
2022-10-06T15:54:52.208Z,1181
2022-10-06T15:55:52.228Z,1153
2022-10-06T15:56:52.218Z,1150
2022-10-06T15:58:52.384Z,1174
2022-10-06T15:59:52.204Z,1159
2022-10-06T16:00:52.216Z,1195
2022-10-06T16:01:52.143Z,1122
2022-10-06T16:03:52.414Z,1597
2022-10-06T16:04:52.212Z,1590
2022-10-06T16:05:52.120Z,1706
2022-10-06T16:06:52.225Z,1597
2022-10-06T16:08:52.413Z,1805
2022-10-06T16:09:52.224Z,1895
2022-10-06T16:10:52.233Z,1912
2022-10-06T16:11:52.221Z,1961
2022-10-06T16:13:52.416Z,1597
2022-10-06T16:14:52.230Z,1825
2022-10-06T16:15:52.239Z,2035
2022-10-06T16:16:52.253Z,2084
2022-10-06T16:18:52.392Z,2140
2022-10-06T16:19:52.232Z,1973
2022-10-06T16:20:52.127Z,2035
2022-10-06T16:21:55.506Z,2189
2022-10-06T16:23:52.427Z,2207
2022-10-06T16:24:52.235Z,1688
2022-10-06T16:25:52.128Z,1711
2022-10-06T16:26:52.123Z,2374
2022-10-06T16:28:52.425Z,2401
2022-10-06T16:29:52.139Z,2461
2022-10-06T16:30:52.149Z,2666
2022-10-06T16:31:52.212Z,2598
2022-10-06T16:33:52.425Z,2760
2022-10-06T16:34:52.106Z,2783
2022-10-06T16:35:52.126Z,2603
2022-10-06T16:36:52.107Z,2913
2022-10-06T16:38:52.409Z,2996
2022-10-06T16:39:52.134Z,2259
2022-10-06T16:40:52.109Z,2990
2022-10-06T16:41:52.128Z,3104
2022-10-06T16:43:52.431Z,3128
2022-10-06T16:44:52.117Z,2234
2022-10-06T16:45:52.112Z,2380
2022-10-06T16:46:52.179Z,3128
2022-10-06T16:48:52.472Z,2318
2022-10-06T16:49:52.133Z,2537
2022-10-06T16:50:52.137Z,3315
2022-10-06T16:51:52.118Z,3023
2022-10-06T16:53:52.434Z,3394
2022-10-06T16:54:52.150Z,2466
2022-10-06T16:55:52.234Z,3015
2022-10-06T16:56:52.241Z,2530
2022-10-06T16:58:52.419Z,3573
2022-10-06T16:59:52.247Z,3466